Overview Statistics Trail Chart Weather Telemetry Raw packets
 

This is the latest recevied weather packets stored in our database for station/object OH6HPS. If no packets are shown the sender has not sent any weather packets the latest 10 day(s).

<< 1 2 3 4 5 6 7 >>
Time Temp. Humidity Pressure Rain* Wind** Luminosity Snow
1788531363 17.78° C 75% 996.6 hPa 0 mm - 157 W/m² -
1788530762 17.78° C 73% 996.7 hPa 0 mm - 394 W/m² -
1788530162 17.78° C 75% 996.8 hPa 0 mm - 354 W/m² -
1788529563 17.78° C 69% 997.1 hPa 0 mm - 220 W/m² -
1788528963 18.33° C 66% 997.1 hPa 0 mm - 121 W/m² -
1788528363 18.33° C 66% 997 hPa 0 mm - 392 W/m² -
1788527762 17.78° C 68% 997.1 hPa 0 mm - 570 W/m² -
1788527163 17.78° C 69% 997.1 hPa 0 mm - 188 W/m² -
1788526562 18.33° C 64% 997.2 hPa 0 mm - 83 W/m² -
1788525963 18.33° C 66% 997.2 hPa 0 mm - 508 W/m² -
1788525363 17.78° C 70% 997.3 hPa 0 mm - 524 W/m² -
1788524763 17.78° C 73% 997.3 hPa 0 mm - 536 W/m² -
1788524162 17.22° C 77% 997.3 hPa 0 mm - 547 W/m² -
1788523563 16.11° C 80% 997.5 hPa 0 mm - 491 W/m² -
1788522963 16.11° C 82% 997.5 hPa 0 mm - 132 W/m² -
1788522363 16.11° C 80% 997.5 hPa 0 mm - 146 W/m² -
1788521763 16.11° C 76% 997.6 hPa 0 mm - 107 W/m² -
1788521163 16.67° C 78% 997.8 hPa 0.25 mm - 69 W/m² -
1788520563 16.11° C 83% 997.6 hPa 0.51 mm - 447 W/m² -
1788519963 15.56° C 83% 997.6 hPa 0.76 mm - 143 W/m² -
1788519363 15° C 83% 997.6 hPa 0.76 mm - 209 W/m² -
1788518763 13.89° C 85% 997.6 hPa 0.76 mm - 733 W/m² -
1788518163 13.33° C 83% 997.8 hPa 0.76 mm - 157 W/m² -
1788517562 13.89° C 80% 997.8 hPa 0.51 mm - 100 W/m² -
1788516962 15.56° C 73% 998 hPa 0.51 mm - 44 W/m² -

* Rain latest hour (hover to see other rain measurements)
** Current wind speed in m/s (hover to see current wind gust speed)